sensor_id;sensor_type;location;lat;lon;timestamp;temperature;humidity
59572;DHT22;70118;45.638;11.714;2023-07-20T00:00:50;29.80;80.70
59572;DHT22;70118;45.638;11.714;2023-07-20T00:03:19;29.80;80.70
59572;DHT22;70118;45.638;11.714;2023-07-20T00:05:49;29.80;80.70
59572;DHT22;70118;45.638;11.714;2023-07-20T00:08:16;29.80;80.80
59572;DHT22;70118;45.638;11.714;2023-07-20T00:10:42;29.80;80.80
59572;DHT22;70118;45.638;11.714;2023-07-20T00:13:09;29.80;80.70
59572;DHT22;70118;45.638;11.714;2023-07-20T00:15:37;29.80;80.80
59572;DHT22;70118;45.638;11.714;2023-07-20T00:18:04;29.90;80.80
59572;DHT22;70118;45.638;11.714;2023-07-20T00:20:30;29.80;80.70
59572;DHT22;70118;45.638;11.714;2023-07-20T00:22:56;29.80;80.80
59572;DHT22;70118;45.638;11.714;2023-07-20T00:25:23;29.80;80.90
59572;DHT22;70118;45.638;11.714;2023-07-20T00:27:49;29.90;80.80
59572;DHT22;70118;45.638;11.714;2023-07-20T00:30:15;29.90;80.90
59572;DHT22;70118;45.638;11.714;2023-07-20T00:32:44;29.90;80.90
59572;DHT22;70118;45.638;11.714;2023-07-20T00:35:10;29.90;81.00
59572;DHT22;70118;45.638;11.714;2023-07-20T00:37:38;29.90;80.80
59572;DHT22;70118;45.638;11.714;2023-07-20T00:40:05;29.90;80.70
59572;DHT22;70118;45.638;11.714;2023-07-20T00:42:33;29.80;80.60
59572;DHT22;70118;45.638;11.714;2023-07-20T00:44:59;29.90;80.70
59572;DHT22;70118;45.638;11.714;2023-07-20T00:47:26;29.80;80.60
59572;DHT22;70118;45.638;11.714;2023-07-20T00:49:53;29.80;80.70
59572;DHT22;70118;45.638;11.714;2023-07-20T00:52:21;29.80;80.60
59572;DHT22;70118;45.638;11.714;2023-07-20T00:54:50;29.80;80.80
59572;DHT22;70118;45.638;11.714;2023-07-20T00:57:17;29.80;80.80
59572;DHT22;70118;45.638;11.714;2023-07-20T00:59:44;29.80;80.90
59572;DHT22;70118;45.638;11.714;2023-07-20T01:02:10;29.80;81.00
59572;DHT22;70118;45.638;11.714;2023-07-20T01:04:37;29.80;80.90
59572;DHT22;70118;45.638;11.714;2023-07-20T01:07:14;29.80;80.90
59572;DHT22;70118;45.638;11.714;2023-07-20T01:10:05;29.70;81.10
59572;DHT22;70118;45.638;11.714;2023-07-20T01:12:46;29.80;81.10
59572;DHT22;70118;45.638;11.714;2023-07-20T01:15:12;29.80;80.90
59572;DHT22;70118;45.638;11.714;2023-07-20T01:17:38;29.80;80.80
59572;DHT22;70118;45.638;11.714;2023-07-20T01:20:06;29.80;81.00
59572;DHT22;70118;45.638;11.714;2023-07-20T01:28:35;29.70;81.10
59572;DHT22;70118;45.638;11.714;2023-07-20T01:33:44;29.90;81.20
59572;DHT22;70118;45.638;11.714;2023-07-20T01:36:11;29.70;81.00
59572;DHT22;70118;45.638;11.714;2023-07-20T01:38:38;29.70;81.20
59572;DHT22;70118;45.638;11.714;2023-07-20T01:41:05;29.80;81.10
59572;DHT22;70118;45.638;11.714;2023-07-20T01:43:31;29.70;81.10
59572;DHT22;70118;45.638;11.714;2023-07-20T01:45:57;29.70;81.10
59572;DHT22;70118;45.638;11.714;2023-07-20T01:48:23;29.70;81.10
59572;DHT22;70118;45.638;11.714;2023-07-20T01:50:49;29.70;81.10
59572;DHT22;70118;45.638;11.714;2023-07-20T01:53:15;29.80;81.00
59572;DHT22;70118;45.638;11.714;2023-07-20T01:55:41;29.80;81.00
59572;DHT22;70118;45.638;11.714;2023-07-20T01:58:06;29.80;81.00
59572;DHT22;70118;45.638;11.714;2023-07-20T02:00:33;29.80;81.00
59572;DHT22;70118;45.638;11.714;2023-07-20T02:02:59;29.80;81.10
59572;DHT22;70118;45.638;11.714;2023-07-20T02:05:24;29.80;81.10
59572;DHT22;70118;45.638;11.714;2023-07-20T02:07:51;29.80;81.10
59572;DHT22;70118;45.638;11.714;2023-07-20T02:10:16;29.80;81.10
59572;DHT22;70118;45.638;11.714;2023-07-20T02:12:42;29.80;81.10
59572;DHT22;70118;45.638;11.714;2023-07-20T02:15:09;29.70;81.20
59572;DHT22;70118;45.638;11.714;2023-07-20T02:17:35;29.70;81.00
59572;DHT22;70118;45.638;11.714;2023-07-20T02:20:02;29.70;81.20
59572;DHT22;70118;45.638;11.714;2023-07-20T02:22:28;29.60;81.20
59572;DHT22;70118;45.638;11.714;2023-07-20T02:24:54;29.70;81.20
59572;DHT22;70118;45.638;11.714;2023-07-20T02:27:20;29.60;81.40
59572;DHT22;70118;45.638;11.714;2023-07-20T02:29:46;29.70;81.30
59572;DHT22;70118;45.638;11.714;2023-07-20T02:32:12;29.70;81.20
59572;DHT22;70118;45.638;11.714;2023-07-20T02:34:37;29.60;81.30
59572;DHT22;70118;45.638;11.714;2023-07-20T02:37:04;29.80;81.20
59572;DHT22;70118;45.638;11.714;2023-07-20T02:39:30;29.70;81.10
59572;DHT22;70118;45.638;11.714;2023-07-20T02:41:56;29.70;81.10
59572;DHT22;70118;45.638;11.714;2023-07-20T02:44:22;29.60;81.10
59572;DHT22;70118;45.638;11.714;2023-07-20T02:46:48;29.80;81.00
59572;DHT22;70118;45.638;11.714;2023-07-20T02:49:17;29.70;81.10
59572;DHT22;70118;45.638;11.714;2023-07-20T02:51:43;29.70;81.00
59572;DHT22;70118;45.638;11.714;2023-07-20T02:54:09;29.70;81.10
59572;DHT22;70118;45.638;11.714;2023-07-20T02:56:35;29.60;81.20
59572;DHT22;70118;45.638;11.714;2023-07-20T02:59:02;29.60;81.20
59572;DHT22;70118;45.638;11.714;2023-07-20T03:01:28;29.60;81.40
59572;DHT22;70118;45.638;11.714;2023-07-20T03:03:55;29.60;81.20
59572;DHT22;70118;45.638;11.714;2023-07-20T03:06:21;29.60;81.20
59572;DHT22;70118;45.638;11.714;2023-07-20T03:08:47;29.60;81.30
59572;DHT22;70118;45.638;11.714;2023-07-20T03:11:17;29.70;81.20
59572;DHT22;70118;45.638;11.714;2023-07-20T03:13:44;29.60;81.20
59572;DHT22;70118;45.638;11.714;2023-07-20T03:16:13;29.60;81.00
59572;DHT22;70118;45.638;11.714;2023-07-20T03:18:43;29.60;81.10
59572;DHT22;70118;45.638;11.714;2023-07-20T03:21:10;29.70;81.10
59572;DHT22;70118;45.638;11.714;2023-07-20T03:23:40;29.60;81.20
59572;DHT22;70118;45.638;11.714;2023-07-20T03:26:06;29.60;81.20
59572;DHT22;70118;45.638;11.714;2023-07-20T03:28:38;29.50;81.10
59572;DHT22;70118;45.638;11.714;2023-07-20T03:31:04;29.60;81.20
59572;DHT22;70118;45.638;11.714;2023-07-20T03:33:31;29.60;81.20
59572;DHT22;70118;45.638;11.714;2023-07-20T03:35:57;29.60;81.00
59572;DHT22;70118;45.638;11.714;2023-07-20T03:38:25;29.60;81.20
59572;DHT22;70118;45.638;11.714;2023-07-20T03:40:52;29.50;81.00
59572;DHT22;70118;45.638;11.714;2023-07-20T03:43:18;29.50;81.00
59572;DHT22;70118;45.638;11.714;2023-07-20T03:45:44;29.60;81.00
59572;DHT22;70118;45.638;11.714;2023-07-20T03:48:17;29.50;80.90
59572;DHT22;70118;45.638;11.714;2023-07-20T03:50:47;29.60;80.80
59572;DHT22;70118;45.638;11.714;2023-07-20T03:53:13;29.60;80.80
59572;DHT22;70118;45.638;11.714;2023-07-20T03:55:41;29.60;80.80
59572;DHT22;70118;45.638;11.714;2023-07-20T03:58:07;29.60;81.00
59572;DHT22;70118;45.638;11.714;2023-07-20T04:00:34;29.60;80.80
59572;DHT22;70118;45.638;11.714;2023-07-20T04:03:00;29.60;80.90
59572;DHT22;70118;45.638;11.714;2023-07-20T04:05:26;29.50;80.80
59572;DHT22;70118;45.638;11.714;2023-07-20T04:07:52;29.50;80.70
59572;DHT22;70118;45.638;11.714;2023-07-20T04:10:18;29.40;80.80
59572;DHT22;70118;45.638;11.714;2023-07-20T04:12:45;28.90;81.80
59572;DHT22;70118;45.638;11.714;2023-07-20T04:15:13;28.70;82.60
59572;DHT22;70118;45.638;11.714;2023-07-20T04:17:39;28.90;82.20
59572;DHT22;70118;45.638;11.714;2023-07-20T04:20:07;29.00;81.40
59572;DHT22;70118;45.638;11.714;2023-07-20T04:22:33;28.40;82.30
59572;DHT22;70118;45.638;11.714;2023-07-20T04:24:58;27.60;85.90
59572;DHT22;70118;45.638;11.714;2023-07-20T04:27:24;27.10;89.00
59572;DHT22;70118;45.638;11.714;2023-07-20T04:29:50;26.90;90.50
59572;DHT22;70118;45.638;11.714;2023-07-20T04:32:16;26.70;95.20
59572;DHT22;70118;45.638;11.714;2023-07-20T04:34:42;26.30;98.80
59572;DHT22;70118;45.638;11.714;2023-07-20T04:37:08;26.10;99.90
59572;DHT22;70118;45.638;11.714;2023-07-20T04:39:34;26.00;99.90
59572;DHT22;70118;45.638;11.714;2023-07-20T04:42:00;25.90;99.90
59572;DHT22;70118;45.638;11.714;2023-07-20T04:44:25;26.20;99.20
59572;DHT22;70118;45.638;11.714;2023-07-20T04:46:51;26.60;95.80
59572;DHT22;70118;45.638;11.714;2023-07-20T04:49:17;26.80;94.50
59572;DHT22;70118;45.638;11.714;2023-07-20T04:51:44;26.80;97.50
59572;DHT22;70118;45.638;11.714;2023-07-20T04:54:10;26.60;98.80
59572;DHT22;70118;45.638;11.714;2023-07-20T04:56:36;26.50;99.30
59572;DHT22;70118;45.638;11.714;2023-07-20T04:59:02;26.60;99.40
59572;DHT22;70118;45.638;11.714;2023-07-20T05:01:28;26.70;99.50
59572;DHT22;70118;45.638;11.714;2023-07-20T05:03:54;26.80;99.90
59572;DHT22;70118;45.638;11.714;2023-07-20T05:06:20;26.80;99.90
59572;DHT22;70118;45.638;11.714;2023-07-20T05:08:45;26.90;99.90
59572;DHT22;70118;45.638;11.714;2023-07-20T05:11:12;27.20;94.70
59572;DHT22;70118;45.638;11.714;2023-07-20T05:13:38;27.60;90.90
59572;DHT22;70118;45.638;11.714;2023-07-20T05:16:04;27.90;88.60
59572;DHT22;70118;45.638;11.714;2023-07-20T05:18:30;28.10;87.20
59572;DHT22;70118;45.638;11.714;2023-07-20T05:20:56;28.20;86.70
59572;DHT22;70118;45.638;11.714;2023-07-20T05:23:22;28.30;85.90
59572;DHT22;70118;45.638;11.714;2023-07-20T05:25:58;28.40;85.60
59572;DHT22;70118;45.638;11.714;2023-07-20T05:28:25;28.40;85.70
59572;DHT22;70118;45.638;11.714;2023-07-20T05:30:52;28.50;85.10
59572;DHT22;70118;45.638;11.714;2023-07-20T05:33:21;28.50;84.80
59572;DHT22;70118;45.638;11.714;2023-07-20T05:35:47;28.60;84.50
59572;DHT22;70118;45.638;11.714;2023-07-20T05:38:13;28.70;83.90
59572;DHT22;70118;45.638;11.714;2023-07-20T05:40:43;28.80;83.60
59572;DHT22;70118;45.638;11.714;2023-07-20T05:43:09;28.80;83.10
59572;DHT22;70118;45.638;11.714;2023-07-20T05:45:37;28.70;83.40
59572;DHT22;70118;45.638;11.714;2023-07-20T05:48:03;28.60;83.50
59572;DHT22;70118;45.638;11.714;2023-07-20T05:50:29;28.50;84.10
59572;DHT22;70118;45.638;11.714;2023-07-20T05:52:55;28.10;84.80
59572;DHT22;70118;45.638;11.714;2023-07-20T05:55:21;28.00;85.80
59572;DHT22;70118;45.638;11.714;2023-07-20T05:57:47;28.10;86.20
59572;DHT22;70118;45.638;11.714;2023-07-20T06:00:14;27.90;86.80
59572;DHT22;70118;45.638;11.714;2023-07-20T06:02:40;28.10;87.10
59572;DHT22;70118;45.638;11.714;2023-07-20T06:05:08;28.20;86.70
59572;DHT22;70118;45.638;11.714;2023-07-20T06:07:38;28.30;87.00
59572;DHT22;70118;45.638;11.714;2023-07-20T06:10:04;28.20;85.20
59572;DHT22;70118;45.638;11.714;2023-07-20T06:12:31;28.40;84.90
59572;DHT22;70118;45.638;11.714;2023-07-20T06:15:01;28.40;84.90
59572;DHT22;70118;45.638;11.714;2023-07-20T06:17:27;28.50;84.90
59572;DHT22;70118;45.638;11.714;2023-07-20T06:19:53;28.50;84.50
59572;DHT22;70118;45.638;11.714;2023-07-20T06:22:18;28.60;83.70
59572;DHT22;70118;45.638;11.714;2023-07-20T06:24:44;28.70;82.90
59572;DHT22;70118;45.638;11.714;2023-07-20T06:27:10;28.90;82.30
59572;DHT22;70118;45.638;11.714;2023-07-20T06:29:37;28.90;82.70
59572;DHT22;70118;45.638;11.714;2023-07-20T06:32:04;28.90;82.80
59572;DHT22;70118;45.638;11.714;2023-07-20T06:34:30;29.00;82.90
59572;DHT22;70118;45.638;11.714;2023-07-20T06:36:56;28.90;82.90
59572;DHT22;70118;45.638;11.714;2023-07-20T06:39:22;28.90;83.20
59572;DHT22;70118;45.638;11.714;2023-07-20T06:41:48;29.00;82.90
59572;DHT22;70118;45.638;11.714;2023-07-20T06:44:14;29.00;83.20
59572;DHT22;70118;45.638;11.714;2023-07-20T06:46:40;29.00;83.40
59572;DHT22;70118;45.638;11.714;2023-07-20T06:49:06;29.00;83.40
59572;DHT22;70118;45.638;11.714;2023-07-20T06:51:33;29.10;83.20
59572;DHT22;70118;45.638;11.714;2023-07-20T06:53:59;29.10;83.20
59572;DHT22;70118;45.638;11.714;2023-07-20T06:56:25;29.10;84.00
59572;DHT22;70118;45.638;11.714;2023-07-20T06:58:51;29.10;83.10
59572;DHT22;70118;45.638;11.714;2023-07-20T07:01:16;29.20;83.30
59572;DHT22;70118;45.638;11.714;2023-07-20T07:03:42;29.20;82.90
59572;DHT22;70118;45.638;11.714;2023-07-20T07:06:09;29.20;82.80
59572;DHT22;70118;45.638;11.714;2023-07-20T07:08:35;29.30;82.40
59572;DHT22;70118;45.638;11.714;2023-07-20T07:11:01;29.30;82.40
59572;DHT22;70118;45.638;11.714;2023-07-20T07:13:27;29.30;82.40
59572;DHT22;70118;45.638;11.714;2023-07-20T07:15:53;29.30;82.30
59572;DHT22;70118;45.638;11.714;2023-07-20T07:18:19;29.40;82.40
59572;DHT22;70118;45.638;11.714;2023-07-20T07:20:52;29.40;82.20
59572;DHT22;70118;45.638;11.714;2023-07-20T07:23:19;29.40;82.00
59572;DHT22;70118;45.638;11.714;2023-07-20T07:25:45;29.40;82.00
59572;DHT22;70118;45.638;11.714;2023-07-20T07:28:11;29.40;82.70
59572;DHT22;70118;45.638;11.714;2023-07-20T07:30:37;29.30;83.50
59572;DHT22;70118;45.638;11.714;2023-07-20T07:33:04;29.30;83.90
59572;DHT22;70118;45.638;11.714;2023-07-20T07:35:29;29.30;83.90
59572;DHT22;70118;45.638;11.714;2023-07-20T07:37:55;29.20;84.00
59572;DHT22;70118;45.638;11.714;2023-07-20T07:40:21;29.20;84.20
59572;DHT22;70118;45.638;11.714;2023-07-20T07:42:47;29.20;84.10
59572;DHT22;70118;45.638;11.714;2023-07-20T07:45:13;29.30;84.10
59572;DHT22;70118;45.638;11.714;2023-07-20T07:47:40;29.30;83.60
59572;DHT22;70118;45.638;11.714;2023-07-20T07:50:06;29.40;83.70
59572;DHT22;70118;45.638;11.714;2023-07-20T07:52:32;29.30;84.60
59572;DHT22;70118;45.638;11.714;2023-07-20T07:54:58;29.30;84.90
59572;DHT22;70118;45.638;11.714;2023-07-20T07:57:25;29.30;84.90
59572;DHT22;70118;45.638;11.714;2023-07-20T07:59:51;29.40;85.00
59572;DHT22;70118;45.638;11.714;2023-07-20T08:02:17;29.30;85.50
59572;DHT22;70118;45.638;11.714;2023-07-20T08:04:43;29.40;85.40
59572;DHT22;70118;45.638;11.714;2023-07-20T08:07:09;29.40;85.70
59572;DHT22;70118;45.638;11.714;2023-07-20T08:09:34;29.40;85.20
59572;DHT22;70118;45.638;11.714;2023-07-20T08:12:00;29.40;85.10
59572;DHT22;70118;45.638;11.714;2023-07-20T08:14:27;29.50;84.90
59572;DHT22;70118;45.638;11.714;2023-07-20T08:16:53;29.50;85.20
59572;DHT22;70118;45.638;11.714;2023-07-20T08:19:20;29.40;85.70
59572;DHT22;70118;45.638;11.714;2023-07-20T08:21:46;29.50;85.50
59572;DHT22;70118;45.638;11.714;2023-07-20T08:24:12;29.60;85.50
59572;DHT22;70118;45.638;11.714;2023-07-20T08:26:38;29.60;85.00
59572;DHT22;70118;45.638;11.714;2023-07-20T08:29:05;29.60;84.40
59572;DHT22;70118;45.638;11.714;2023-07-20T08:31:31;29.70;84.10
59572;DHT22;70118;45.638;11.714;2023-07-20T08:33:56;29.80;83.80
59572;DHT22;70118;45.638;11.714;2023-07-20T08:36:23;29.80;83.80
59572;DHT22;70118;45.638;11.714;2023-07-20T08:38:50;29.70;83.60
59572;DHT22;70118;45.638;11.714;2023-07-20T08:41:18;29.80;83.70
59572;DHT22;70118;45.638;11.714;2023-07-20T08:44:03;29.90;83.30
59572;DHT22;70118;45.638;11.714;2023-07-20T08:46:38;29.90;83.30
59572;DHT22;70118;45.638;11.714;2023-07-20T08:49:05;29.90;83.20
59572;DHT22;70118;45.638;11.714;2023-07-20T08:51:32;29.90;83.00
59572;DHT22;70118;45.638;11.714;2023-07-20T08:54:02;29.90;83.00
59572;DHT22;70118;45.638;11.714;2023-07-20T08:56:35;29.90;83.00
59572;DHT22;70118;45.638;11.714;2023-07-20T08:59:01;29.90;83.00
59572;DHT22;70118;45.638;11.714;2023-07-20T09:01:28;29.90;83.00
59572;DHT22;70118;45.638;11.714;2023-07-20T09:03:56;29.80;82.70
59572;DHT22;70118;45.638;11.714;2023-07-20T09:06:22;29.90;83.00
59572;DHT22;70118;45.638;11.714;2023-07-20T09:08:48;29.90;82.80
59572;DHT22;70118;45.638;11.714;2023-07-20T09:11:14;29.90;82.60
59572;DHT22;70118;45.638;11.714;2023-07-20T09:13:43;29.90;82.70
59572;DHT22;70118;45.638;11.714;2023-07-20T09:16:12;29.90;82.50
59572;DHT22;70118;45.638;11.714;2023-07-20T09:18:39;29.90;82.40
59572;DHT22;70118;45.638;11.714;2023-07-20T09:21:06;30.00;82.40
59572;DHT22;70118;45.638;11.714;2023-07-20T09:23:38;30.00;82.40
59572;DHT22;70118;45.638;11.714;2023-07-20T09:26:11;29.90;82.30
59572;DHT22;70118;45.638;11.714;2023-07-20T09:28:58;29.90;82.30
59572;DHT22;70118;45.638;11.714;2023-07-20T09:31:24;30.00;82.20
59572;DHT22;70118;45.638;11.714;2023-07-20T09:33:57;30.00;82.10
59572;DHT22;70118;45.638;11.714;2023-07-20T09:36:39;30.00;82.10
59572;DHT22;70118;45.638;11.714;2023-07-20T09:39:05;30.10;81.90
59572;DHT22;70118;45.638;11.714;2023-07-20T09:41:40;29.90;81.80
59572;DHT22;70118;45.638;11.714;2023-07-20T09:44:10;30.00;81.80
59572;DHT22;70118;45.638;11.714;2023-07-20T09:46:50;30.00;82.00
59572;DHT22;70118;45.638;11.714;2023-07-20T09:49:18;30.00;81.60
59572;DHT22;70118;45.638;11.714;2023-07-20T09:51:45;29.90;81.60
59572;DHT22;70118;45.638;11.714;2023-07-20T09:54:13;30.00;81.50
59572;DHT22;70118;45.638;11.714;2023-07-20T09:56:43;30.00;81.70
59572;DHT22;70118;45.638;11.714;2023-07-20T09:59:11;30.00;81.40
59572;DHT22;70118;45.638;11.714;2023-07-20T10:01:41;30.00;81.40
59572;DHT22;70118;45.638;11.714;2023-07-20T10:04:09;30.00;81.20
59572;DHT22;70118;45.638;11.714;2023-07-20T10:06:41;30.00;81.20
59572;DHT22;70118;45.638;11.714;2023-07-20T10:09:10;30.10;81.20
59572;DHT22;70118;45.638;11.714;2023-07-20T10:11:42;30.10;81.20
59572;DHT22;70118;45.638;11.714;2023-07-20T10:14:08;30.10;81.10
59572;DHT22;70118;45.638;11.714;2023-07-20T10:16:41;30.00;81.10
59572;DHT22;70118;45.638;11.714;2023-07-20T10:19:46;30.00;81.00
59572;DHT22;70118;45.638;11.714;2023-07-20T10:22:22;30.10;81.00
59572;DHT22;70118;45.638;11.714;2023-07-20T10:24:51;30.00;81.10
59572;DHT22;70118;45.638;11.714;2023-07-20T10:27:26;30.10;81.10
59572;DHT22;70118;45.638;11.714;2023-07-20T10:29:58;30.00;81.00
59572;DHT22;70118;45.638;11.714;2023-07-20T10:32:24;30.10;81.10
59572;DHT22;70118;45.638;11.714;2023-07-20T10:34:51;30.10;81.00
59572;DHT22;70118;45.638;11.714;2023-07-20T10:40:34;30.20;80.80
59572;DHT22;70118;45.638;11.714;2023-07-20T10:43:10;30.10;81.00
59572;DHT22;70118;45.638;11.714;2023-07-20T10:45:47;30.20;80.80
59572;DHT22;70118;45.638;11.714;2023-07-20T10:48:30;30.10;80.70
59572;DHT22;70118;45.638;11.714;2023-07-20T10:51:14;30.10;80.80
59572;DHT22;70118;45.638;11.714;2023-07-20T10:53:56;30.00;80.60
59572;DHT22;70118;45.638;11.714;2023-07-20T10:56:28;30.10;80.60
59572;DHT22;70118;45.638;11.714;2023-07-20T10:59:01;30.10;80.60
59572;DHT22;70118;45.638;11.714;2023-07-20T11:01:44;30.20;80.40
59572;DHT22;70118;45.638;11.714;2023-07-20T11:04:10;30.20;80.50
59572;DHT22;70118;45.638;11.714;2023-07-20T11:06:37;30.20;80.40
59572;DHT22;70118;45.638;11.714;2023-07-20T11:09:06;30.20;80.40
59572;DHT22;70118;45.638;11.714;2023-07-20T11:11:38;30.30;80.40
59572;DHT22;70118;45.638;11.714;2023-07-20T11:14:20;30.20;80.30
59572;DHT22;70118;45.638;11.714;2023-07-20T11:16:47;30.10;80.10
59572;DHT22;70118;45.638;11.714;2023-07-20T11:19:18;30.10;80.40
59572;DHT22;70118;45.638;11.714;2023-07-20T11:21:46;30.20;80.40
59572;DHT22;70118;45.638;11.714;2023-07-20T11:24:12;30.20;80.30
59572;DHT22;70118;45.638;11.714;2023-07-20T11:26:43;30.20;80.20
59572;DHT22;70118;45.638;11.714;2023-07-20T11:29:09;30.20;80.30
59572;DHT22;70118;45.638;11.714;2023-07-20T11:31:37;30.20;80.20
59572;DHT22;70118;45.638;11.714;2023-07-20T11:34:03;30.20;80.20
59572;DHT22;70118;45.638;11.714;2023-07-20T11:36:28;30.20;80.10
59572;DHT22;70118;45.638;11.714;2023-07-20T11:38:55;30.20;80.10
59572;DHT22;70118;45.638;11.714;2023-07-20T11:41:20;30.20;80.20
59572;DHT22;70118;45.638;11.714;2023-07-20T11:43:47;30.20;80.00
59572;DHT22;70118;45.638;11.714;2023-07-20T11:46:13;30.20;80.10
59572;DHT22;70118;45.638;11.714;2023-07-20T11:48:39;30.20;79.90
59572;DHT22;70118;45.638;11.714;2023-07-20T11:51:05;30.20;79.90
59572;DHT22;70118;45.638;11.714;2023-07-20T11:53:31;30.30;80.00
59572;DHT22;70118;45.638;11.714;2023-07-20T11:55:59;30.30;79.80
59572;DHT22;70118;45.638;11.714;2023-07-20T11:58:25;30.20;80.00
59572;DHT22;70118;45.638;11.714;2023-07-20T12:00:55;30.20;79.70
59572;DHT22;70118;45.638;11.714;2023-07-20T12:03:21;30.30;79.70
59572;DHT22;70118;45.638;11.714;2023-07-20T12:05:47;30.30;79.80
59572;DHT22;70118;45.638;11.714;2023-07-20T12:08:16;30.30;79.80
59572;DHT22;70118;45.638;11.714;2023-07-20T12:10:42;30.30;79.90
59572;DHT22;70118;45.638;11.714;2023-07-20T12:13:10;30.30;79.80
59572;DHT22;70118;45.638;11.714;2023-07-20T12:15:39;30.30;79.80
59572;DHT22;70118;45.638;11.714;2023-07-20T12:18:06;30.30;79.80
59572;DHT22;70118;45.638;11.714;2023-07-20T12:20:34;30.40;79.80
59572;DHT22;70118;45.638;11.714;2023-07-20T12:23:05;30.30;79.80
59572;DHT22;70118;45.638;11.714;2023-07-20T12:25:37;30.30;79.80
59572;DHT22;70118;45.638;11.714;2023-07-20T12:28:22;30.30;79.80
59572;DHT22;70118;45.638;11.714;2023-07-20T12:30:49;30.40;79.80
59572;DHT22;70118;45.638;11.714;2023-07-20T12:33:22;30.20;79.70
59572;DHT22;70118;45.638;11.714;2023-07-20T12:35:51;30.30;79.70
59572;DHT22;70118;45.638;11.714;2023-07-20T12:38:22;30.40;79.80
59572;DHT22;70118;45.638;11.714;2023-07-20T12:40:48;30.30;79.80
59572;DHT22;70118;45.638;11.714;2023-07-20T12:43:15;30.40;79.70
59572;DHT22;70118;45.638;11.714;2023-07-20T12:45:41;30.40;79.80
59572;DHT22;70118;45.638;11.714;2023-07-20T12:48:08;30.40;79.70
59572;DHT22;70118;45.638;11.714;2023-07-20T12:50:34;30.40;79.80
59572;DHT22;70118;45.638;11.714;2023-07-20T12:53:01;30.30;79.50
59572;DHT22;70118;45.638;11.714;2023-07-20T12:55:29;30.40;79.50
59572;DHT22;70118;45.638;11.714;2023-07-20T12:57:55;30.40;79.40
59572;DHT22;70118;45.638;11.714;2023-07-20T13:00:22;30.40;79.40
59572;DHT22;70118;45.638;11.714;2023-07-20T13:02:49;30.40;79.30
59572;DHT22;70118;45.638;11.714;2023-07-20T13:05:16;30.40;79.60
59572;DHT22;70118;45.638;11.714;2023-07-20T13:07:43;30.50;79.50
59572;DHT22;70118;45.638;11.714;2023-07-20T13:10:10;30.30;79.40
59572;DHT22;70118;45.638;11.714;2023-07-20T13:12:37;30.40;79.40
59572;DHT22;70118;45.638;11.714;2023-07-20T13:15:05;30.40;79.40
59572;DHT22;70118;45.638;11.714;2023-07-20T13:17:32;30.40;79.40
59572;DHT22;70118;45.638;11.714;2023-07-20T13:19:59;30.40;79.50
59572;DHT22;70118;45.638;11.714;2023-07-20T13:22:25;30.50;79.30
59572;DHT22;70118;45.638;11.714;2023-07-20T13:24:53;30.40;79.30
59572;DHT22;70118;45.638;11.714;2023-07-20T13:27:19;30.50;79.40
59572;DHT22;70118;45.638;11.714;2023-07-20T13:29:46;30.40;79.20
59572;DHT22;70118;45.638;11.714;2023-07-20T13:32:15;30.50;79.30
59572;DHT22;70118;45.638;11.714;2023-07-20T13:34:41;30.50;79.30
59572;DHT22;70118;45.638;11.714;2023-07-20T13:37:08;30.50;79.20
59572;DHT22;70118;45.638;11.714;2023-07-20T13:39:34;30.60;79.20
59572;DHT22;70118;45.638;11.714;2023-07-20T13:42:01;30.50;79.20
59572;DHT22;70118;45.638;11.714;2023-07-20T13:44:31;30.50;79.10
59572;DHT22;70118;45.638;11.714;2023-07-20T13:46:58;30.40;79.20
59572;DHT22;70118;45.638;11.714;2023-07-20T13:49:24;30.50;79.20
59572;DHT22;70118;45.638;11.714;2023-07-20T13:51:50;30.50;79.30
59572;DHT22;70118;45.638;11.714;2023-07-20T13:54:16;30.40;79.20
59572;DHT22;70118;45.638;11.714;2023-07-20T13:56:43;30.60;79.10
59572;DHT22;70118;45.638;11.714;2023-07-20T13:59:09;30.60;79.10
59572;DHT22;70118;45.638;11.714;2023-07-20T14:01:34;30.50;79.10
59572;DHT22;70118;45.638;11.714;2023-07-20T14:04:02;30.60;79.30
59572;DHT22;70118;45.638;11.714;2023-07-20T14:06:32;30.60;79.10
59572;DHT22;70118;45.638;11.714;2023-07-20T14:08:58;30.60;79.10
59572;DHT22;70118;45.638;11.714;2023-07-20T14:11:25;30.60;79.20
59572;DHT22;70118;45.638;11.714;2023-07-20T14:13:51;30.60;79.30
59572;DHT22;70118;45.638;11.714;2023-07-20T14:16:21;30.60;78.90
59572;DHT22;70118;45.638;11.714;2023-07-20T14:18:47;30.50;78.40
59572;DHT22;70118;45.638;11.714;2023-07-20T14:21:16;30.50;78.20
59572;DHT22;70118;45.638;11.714;2023-07-20T14:23:48;30.40;78.10
59572;DHT22;70118;45.638;11.714;2023-07-20T14:26:15;30.30;78.00
59572;DHT22;70118;45.638;11.714;2023-07-20T14:28:41;30.30;77.90
59572;DHT22;70118;45.638;11.714;2023-07-20T14:31:07;30.40;77.90
59572;DHT22;70118;45.638;11.714;2023-07-20T14:33:33;30.20;77.80
59572;DHT22;70118;45.638;11.714;2023-07-20T14:36:00;30.30;77.60
59572;DHT22;70118;45.638;11.714;2023-07-20T14:38:31;30.20;77.50
59572;DHT22;70118;45.638;11.714;2023-07-20T14:40:57;30.30;77.50
59572;DHT22;70118;45.638;11.714;2023-07-20T14:43:23;30.30;77.40
59572;DHT22;70118;45.638;11.714;2023-07-20T14:45:49;30.20;77.40
59572;DHT22;70118;45.638;11.714;2023-07-20T14:48:15;30.20;77.30
59572;DHT22;70118;45.638;11.714;2023-07-20T14:50:41;30.20;77.20
59572;DHT22;70118;45.638;11.714;2023-07-20T14:53:06;30.10;77.10
59572;DHT22;70118;45.638;11.714;2023-07-20T14:55:33;30.30;77.10
59572;DHT22;70118;45.638;11.714;2023-07-20T14:57:59;30.10;77.10
59572;DHT22;70118;45.638;11.714;2023-07-20T15:00:25;30.10;76.90
59572;DHT22;70118;45.638;11.714;2023-07-20T15:02:51;30.10;76.90
59572;DHT22;70118;45.638;11.714;2023-07-20T15:05:24;30.20;77.00
59572;DHT22;70118;45.638;11.714;2023-07-20T15:07:52;30.10;76.70
59572;DHT22;70118;45.638;11.714;2023-07-20T15:10:19;30.10;76.70
59572;DHT22;70118;45.638;11.714;2023-07-20T15:12:45;30.10;76.70
59572;DHT22;70118;45.638;11.714;2023-07-20T15:15:13;30.10;76.50
59572;DHT22;70118;45.638;11.714;2023-07-20T15:17:41;30.00;76.40
59572;DHT22;70118;45.638;11.714;2023-07-20T15:20:10;30.10;76.50
59572;DHT22;70118;45.638;11.714;2023-07-20T15:22:36;30.00;76.60
59572;DHT22;70118;45.638;11.714;2023-07-20T15:25:03;30.10;76.40
59572;DHT22;70118;45.638;11.714;2023-07-20T15:27:30;30.10;76.50
59572;DHT22;70118;45.638;11.714;2023-07-20T15:29:56;30.10;76.40